Time;durP1;ratioP1;P1;durP2;ratioP2;P2;SDS_P1;SDS_P2;PMS_P1;PMS_P2;Temp;Humidity;BMP_temperature;BMP_pressure;BME280_temperature;BME280_humidity;BME280_pressure;Samples;Min_cycle;Max_cycle;Signal;HPM_P1;HPM_P2
2022/04/18 00:01:04;;;;;;;5.77;1.83;;;;;7.80;101378.00;;;;10500412;28;20191;-80
2022/04/18 00:06:06;;;;;;;1.90;1.70;;;;;7.60;101369.00;;;;10531125;28;20208;-80
2022/04/18 00:11:08;;;;;;;3.10;2.20;;;;;7.50;101363.00;;;;10486552;28;20254;-79
2022/04/18 00:16:09;;;;;;;4.03;1.57;;;;;7.30;101368.00;;;;10523572;28;20270;-79
2022/04/18 00:21:11;;;;;;;3.20;1.67;;;;;7.20;101367.00;;;;10518461;28;20531;-79
2022/04/18 00:26:13;;;;;;;2.33;1.70;;;;;7.10;101358.00;;;;10546065;28;20196;-80
2022/04/18 00:31:15;;;;;;;2.30;1.77;;;;;7.00;101352.00;;;;10550647;28;20200;-80
2022/04/18 00:36:17;;;;;;;2.17;1.90;;;;;6.90;101357.00;;;;10492343;28;20682;-82
2022/04/18 00:41:19;;;;;;;3.30;2.03;;;;;6.80;101347.00;;;;10519512;28;20714;-80
2022/04/18 00:46:21;;;;;;;2.73;2.20;;;;;6.70;101343.00;;;;10536274;28;20203;-80
2022/04/18 00:51:26;;;;;;;2.13;1.93;;;;;6.60;101345.00;;;;10533167;28;20239;-79
2022/04/18 00:56:28;;;;;;;1.67;1.57;;;;;6.60;101341.00;;;;10506837;28;20224;-80
2022/04/18 01:01:30;;;;;;;3.30;1.87;;;;;6.60;101352.00;;;;10507643;28;20289;-77
2022/04/18 01:06:33;;;;;;;4.27;2.10;;;;;6.60;101346.00;;;;10526636;28;20215;-76
2022/04/18 01:11:36;;;;;;;3.43;2.30;;;;;6.50;101352.00;;;;10491142;28;20216;-77
2022/04/18 01:17:03;;;;;;;3.47;2.13;;;;;6.40;101335.00;;;;10539080;28;20192;-77
2022/04/18 01:22:23;;;;;;;2.50;2.27;;;;;6.30;101340.00;;;;10544462;27;20185;-76
2022/04/18 01:32:59;;;;;;;2.77;2.03;;;;;6.10;101335.00;;;;10526912;28;20231;-77
2022/04/18 01:38:01;;;;;;;2.83;1.80;;;;;6.20;101326.00;;;;10533242;28;20192;-78
2022/04/18 01:43:03;;;;;;;3.47;1.90;;;;;6.30;101330.00;;;;10518039;28;20192;-79
2022/04/18 01:48:05;;;;;;;2.03;1.80;;;;;6.30;101342.00;;;;10534054;28;20667;-77
2022/04/18 01:53:07;;;;;;;2.07;1.80;;;;;6.40;101322.00;;;;10537564;27;20215;-78
2022/04/18 01:58:10;;;;;;;3.70;2.03;;;;;6.40;101320.00;;;;10550780;27;20192;-77
2022/04/18 02:03:12;;;;;;;2.90;1.60;;;;;6.50;101326.00;;;;10522199;27;20206;-77
2022/04/18 02:08:14;;;;;;;3.00;1.90;;;;;6.40;101328.00;;;;10554500;28;20660;-76
2022/04/18 02:13:17;;;;;;;2.53;1.57;;;;;6.30;101319.00;;;;10539239;28;20198;-79
2022/04/18 02:18:19;;;;;;;2.00;1.57;;;;;6.20;101311.00;;;;10527876;28;20195;-78
2022/04/18 02:23:21;;;;;;;2.57;2.07;;;;;6.20;101319.00;;;;10526936;27;20198;-77
2022/04/18 02:28:23;;;;;;;2.70;2.10;;;;;6.20;101316.00;;;;10546907;28;20201;-78
2022/04/18 02:33:31;;;;;;;2.47;2.00;;;;;6.10;101316.00;;;;10512409;28;20200;-79
2022/04/18 02:38:33;;;;;;;2.27;1.70;;;;;6.00;101313.00;;;;10544858;28;20265;-79
2022/04/18 02:43:35;;;;;;;1.70;1.60;;;;;5.90;101322.00;;;;10523078;28;20197;-76
2022/04/18 02:48:44;;;;;;;2.40;1.70;;;;;5.90;101325.00;;;;10482557;28;20224;-76
2022/04/18 02:53:49;;;;;;;3.00;1.90;;;;;5.80;101318.00;;;;10505191;27;20201;-78
2022/04/18 02:58:51;;;;;;;4.57;1.70;;;;;5.70;101321.00;;;;10530385;28;20224;-78
2022/04/18 03:03:53;;;;;;;2.43;1.73;;;;;5.50;101308.00;;;;10541967;28;20192;-76
2022/04/18 03:08:55;;;;;;;3.00;2.10;;;;;5.40;101311.00;;;;10490372;28;20208;-78
2022/04/18 03:13:57;;;;;;;2.47;1.97;;;;;5.20;101319.00;;;;10518566;28;20554;-78
2022/04/18 03:19:17;;;;;;;2.90;2.53;;;;;5.00;101310.00;;;;10516209;28;20211;-78
2022/04/18 03:24:27;;;;;;;3.50;1.80;;;;;4.90;101312.00;;;;10523252;28;20192;-78
2022/04/18 03:29:41;;;;;;;3.33;2.27;;;;;4.70;101308.00;;;;10527741;28;20208;-78
2022/04/18 03:34:52;;;;;;;5.03;2.80;;;;;4.60;101300.00;;;;10523292;28;20188;-76
2022/04/18 03:39:54;;;;;;;3.40;2.40;;;;;4.60;101294.00;;;;10543632;28;20540;-78
2022/04/18 03:45:05;;;;;;;4.27;2.20;;;;;4.60;101295.00;;;;10533436;28;20188;-78
2022/04/18 03:50:08;;;;;;;2.90;2.43;;;;;4.50;101296.00;;;;10542235;28;20213;-78
2022/04/18 03:55:16;;;;;;;3.30;2.20;;;;;4.50;101291.00;;;;10534528;28;20241;-78
2022/04/18 04:00:19;;;;;;;3.80;2.47;;;;;4.40;101294.00;;;;10507897;28;20196;-78
2022/04/18 04:05:25;;;;;;;5.70;2.87;;;;;4.30;101294.00;;;;10517363;28;20608;-78
2022/04/18 04:10:29;;;;;;;5.13;2.80;;;;;4.20;101301.00;;;;10533997;28;20197;-77
2022/04/18 04:15:31;;;;;;;3.10;2.43;;;;;4.10;101303.00;;;;10520460;27;20189;-78
2022/04/18 04:20:39;;;;;;;3.20;2.30;;;;;4.00;101309.00;;;;10541567;27;20188;-78
2022/04/18 04:25:45;;;;;;;2.00;1.80;;;;;3.90;101318.00;;;;10508663;28;20238;-78
2022/04/18 04:30:50;;;;;;;2.53;2.33;;;;;3.90;101314.00;;;;10503615;28;20205;-78
2022/04/18 04:35:52;;;;;;;3.63;2.60;;;;;4.00;101311.00;;;;10525162;28;20196;-78
2022/04/18 04:40:58;;;;;;;2.83;2.60;;;;;4.20;101306.00;;;;10524482;28;20208;-78
2022/04/18 04:46:17;;;;;;;5.57;2.83;;;;;4.30;101305.00;;;;10521704;28;20214;-78
2022/04/18 04:51:30;;;;;;;2.80;2.47;;;;;4.40;101313.00;;;;10527299;28;20247;-77
2022/04/18 04:56:32;;;;;;;3.20;2.73;;;;;4.50;101299.00;;;;10547945;28;20222;-78
2022/04/18 05:01:36;;;;;;;2.63;2.43;;;;;4.60;101300.00;;;;10507566;28;20216;-77
2022/04/18 05:06:42;;;;;;;4.83;2.30;;;;;4.70;101285.00;;;;10524303;28;20270;-78
2022/04/18 05:11:52;;;;;;;5.27;2.70;;;;;5.00;101292.00;;;;10525544;28;20235;-78
2022/04/18 05:16:55;;;;;;;2.80;2.57;;;;;5.50;101303.00;;;;10498546;28;20193;-78
2022/04/18 05:22:09;;;;;;;3.13;2.50;;;;;5.90;101301.00;;;;10549531;28;20291;-78
2022/04/18 05:27:16;;;;;;;2.37;2.13;;;;;6.40;101301.00;;;;10522690;28;20197;-78
2022/04/18 05:32:20;;;;;;;2.67;2.30;;;;;7.50;101294.00;;;;10502107;28;20295;-78
2022/04/18 05:37:36;;;;;;;2.57;2.30;;;;;8.50;101302.00;;;;10507530;28;20590;-78
2022/04/18 05:42:51;;;;;;;6.43;2.30;;;;;9.00;101307.00;;;;10507687;28;20216;-78
2022/04/18 05:47:53;;;;;;;5.27;2.47;;;;;9.00;101317.00;;;;10539140;28;20291;-78
2022/04/18 05:52:57;;;;;;;3.50;2.30;;;;;9.30;101305.00;;;;10500411;28;20746;-78
2022/04/18 05:58:31;;;;;;;3.80;2.57;;;;;9.50;101306.00;;;;10493039;28;20208;-78
2022/04/18 06:03:35;;;;;;;2.60;2.40;;;;;9.70;101314.00;;;;10475334;28;20208;-78
2022/04/18 06:08:37;;;;;;;3.23;2.37;;;;;10.10;101316.00;;;;10485417;28;20205;-78
2022/04/18 06:13:41;;;;;;;2.30;1.80;;;;;10.70;101309.00;;;;10527438;28;20271;-78
2022/04/18 06:18:44;;;;;;;3.73;2.50;;;;;10.90;101311.00;;;;10526488;28;20201;-78
2022/04/18 06:23:48;;;;;;;3.90;2.17;;;;;11.20;101310.00;;;;10511129;28;20243;-78
2022/04/18 06:29:19;;;;;;;4.43;2.50;;;;;11.80;101316.00;;;;10472739;28;20205;-78
2022/04/18 06:34:25;;;;;;;3.63;2.70;;;;;12.20;101316.00;;;;10532418;28;20196;-78
2022/04/18 06:39:30;;;;;;;2.67;2.10;;;;;12.70;101320.00;;;;10513809;28;20208;-78
2022/04/18 06:44:41;;;;;;;3.43;2.30;;;;;13.00;101327.00;;;;10534576;28;20584;-78
2022/04/18 06:49:44;;;;;;;3.97;2.40;;;;;13.20;101322.00;;;;10515371;28;20217;-79
2022/04/18 06:55:05;;;;;;;2.37;1.90;;;;;14.50;101313.00;;;;10535163;28;20686;-79
2022/04/18 07:00:09;;;;;;;2.73;1.90;;;;;15.50;101309.00;;;;10502208;28;20185;-79
2022/04/18 07:05:11;;;;;;;4.37;2.00;;;;;16.10;101310.00;;;;10533337;28;20555;-79
2022/04/18 07:10:13;;;;;;;2.60;2.07;;;;;16.50;101313.00;;;;10521062;28;20262;-78
2022/04/18 07:15:16;;;;;;;3.23;1.80;;;;;16.70;101303.00;;;;10526386;28;20217;-79
2022/04/18 07:20:19;;;;;;;3.87;1.90;;;;;16.70;101309.00;;;;10526555;28;20184;-78
2022/04/18 07:25:21;;;;;;;3.90;2.07;;;;;16.90;101307.00;;;;10540744;28;20193;-79
2022/04/18 07:30:37;;;;;;;2.20;2.00;;;;;17.20;101312.00;;;;10534294;28;20218;-78
2022/04/18 07:35:42;;;;;;;2.58;2.00;;;;;17.60;101318.00;;;;10551498;28;20200;-79
2022/04/18 07:40:47;;;;;;;2.50;2.00;;;;;17.80;101309.00;;;;10563487;27;20212;-78
2022/04/18 07:45:54;;;;;;;3.80;2.20;;;;;18.10;101309.00;;;;10536210;28;20203;-79
2022/04/18 07:56:20;;;;;;;3.33;1.98;;;;;18.70;101310.00;;;;10533506;28;20192;-78
2022/04/18 08:01:22;;;;;;;2.53;1.83;;;;;19.20;101309.00;;;;10504851;28;20246;-77
2022/04/18 08:06:24;;;;;;;2.63;1.83;;;;;19.10;101305.00;;;;10524104;28;20184;-77
2022/04/18 08:11:43;;;;;;;3.05;2.08;;;;;19.40;101312.00;;;;10519784;28;20200;-76
2022/04/18 08:16:48;;;;;;;1.95;1.75;;;;;19.60;101317.00;;;;10496228;28;20239;-78
2022/04/18 08:22:13;;;;;;;2.47;2.13;;;;;19.70;101309.00;;;;10502371;28;20634;-77
2022/04/18 08:27:38;;;;;;;3.97;2.13;;;;;19.50;101311.00;;;;10521355;28;20196;-76
2022/04/18 08:32:46;;;;;;;2.28;1.65;;;;;20.00;101314.00;;;;10526731;28;20657;-77
2022/04/18 08:37:48;;;;;;;3.10;2.08;;;;;20.40;101317.00;;;;10540579;27;20203;-76
2022/04/18 08:42:57;;;;;;;2.10;1.67;;;;;20.80;101304.00;;;;10527992;28;20196;-76
2022/04/18 08:53:20;;;;;;;2.95;1.98;;;;;20.70;101308.00;;;;10525860;27;20216;-77
2022/04/18 08:58:23;;;;;;;2.80;1.90;;;;;20.90;101312.00;;;;10494190;28;20229;-76
2022/04/18 09:03:28;;;;;;;4.20;2.05;;;;;21.00;101303.00;;;;10539787;28;20196;-77
2022/04/18 09:08:34;;;;;;;3.72;1.90;;;;;20.80;101299.00;;;;10521449;28;20236;-77
2022/04/18 09:13:44;;;;;;;2.58;2.00;;;;;21.00;101292.00;;;;10483605;28;20224;-77
2022/04/18 09:19:12;;;;;;;7.82;2.15;;;;;21.60;101296.00;;;;10501359;28;20284;-76
2022/04/18 09:24:43;;;;;;;3.22;1.92;;;;;21.10;101286.00;;;;10492048;28;20185;-76
2022/04/18 09:30:02;;;;;;;2.05;1.80;;;;;21.70;101283.00;;;;10499979;28;20237;-76
2022/04/18 09:35:05;;;;;;;2.47;1.80;;;;;22.30;101283.00;;;;10467348;28;20303;-77
2022/04/18 09:40:22;;;;;;;4.68;1.88;;;;;22.30;101280.00;;;;10528207;28;20216;-77
2022/04/18 09:45:24;;;;;;;2.65;1.65;;;;;21.80;101284.00;;;;10548853;28;20203;-77
2022/04/18 09:55:56;;;;;;;1.70;1.60;;;;;22.50;101285.00;;;;10507957;28;20196;-76
2022/04/18 10:01:02;;;;;;;2.72;1.88;;;;;23.10;101275.00;;;;10511214;28;20594;-77
2022/04/18 10:06:07;;;;;;;3.28;2.00;;;;;23.50;101265.00;;;;10539353;28;20192;-77
2022/04/18 10:11:11;;;;;;;1.85;1.63;;;;;23.70;101267.00;;;;10532064;28;20208;-77
2022/04/18 10:16:13;;;;;;;3.55;1.90;;;;;24.20;101268.00;;;;10548540;28;20605;-77
2022/04/18 10:21:29;;;;;;;2.30;2.05;;;;;24.80;101252.00;;;;10543777;28;20227;-77
2022/04/18 10:27:08;;;;;;;2.67;1.90;;;;;25.30;101255.00;;;;10506155;28;20189;-77
2022/04/18 10:32:10;;;;;;;2.60;1.90;;;;;25.00;101245.00;;;;10521254;28;20213;-77
2022/04/18 10:37:15;;;;;;;2.58;1.60;;;;;25.20;101240.00;;;;10529106;28;20675;-77
2022/04/18 10:42:21;;;;;;;3.53;2.08;;;;;25.40;101238.00;;;;10547296;28;20203;-76
2022/04/18 10:47:23;;;;;;;1.90;1.65;;;;;24.90;101231.00;;;;10530481;28;20208;-76
2022/04/18 10:52:28;;;;;;;2.47;1.77;;;;;25.10;101225.00;;;;10536084;27;20207;-77
2022/04/18 10:57:30;;;;;;;2.00;1.60;;;;;25.80;101223.00;;;;10555558;27;20187;-76
2022/04/18 11:02:42;;;;;;;2.67;1.67;;;;;25.90;101219.00;;;;10571407;27;20228;-76
2022/04/18 11:07:44;;;;;;;2.15;1.65;;;;;25.70;101212.00;;;;10546221;28;20643;-77
2022/04/18 11:12:47;;;;;;;2.20;1.98;;;;;26.00;101216.00;;;;10536730;28;20288;-77
2022/04/18 11:17:49;;;;;;;1.95;1.70;;;;;25.90;101209.00;;;;10529388;28;20195;-76
2022/04/18 11:23:26;;;;;;;2.70;1.80;;;;;26.10;101208.00;;;;10565920;27;20187;-77
2022/04/18 11:28:39;;;;;;;1.70;1.60;;;;;26.10;101212.00;;;;10585627;27;20196;-75
2022/04/18 11:33:42;;;;;;;2.40;1.83;;;;;25.80;101205.00;;;;10570741;27;20211;-76
2022/04/18 11:38:44;;;;;;;3.55;2.10;;;;;26.00;101199.00;;;;10571703;27;20223;-77
2022/04/18 11:43:46;;;;;;;2.15;1.95;;;;;26.30;101204.00;;;;10587252;27;20266;-77
2022/04/18 11:48:53;;;;;;;2.97;2.00;;;;;26.30;101200.00;;;;10577554;27;20651;-76
2022/04/18 11:54:01;;;;;;;1.67;1.58;;;;;27.00;101192.00;;;;10516076;28;21132;-77
2022/04/18 11:59:06;;;;;;;3.50;1.98;;;;;26.90;101192.00;;;;10519530;28;20201;-76
2022/04/18 12:09:30;;;;;;;1.88;1.60;;;;;27.00;101188.00;;;;10543850;28;20207;-76
2022/04/18 12:14:32;;;;;;;3.25;1.70;;;;;27.10;101183.00;;;;10510425;28;20284;-77
2022/04/18 12:19:33;;;;;;;2.80;1.67;;;;;26.90;101174.00;;;;10501738;28;20196;-76
2022/04/18 12:24:42;;;;;;;2.17;1.90;;;;;27.00;101166.00;;;;10553122;27;20199;-76
2022/04/18 12:29:44;;;;;;;2.40;1.92;;;;;26.60;101158.00;;;;10536467;28;20196;-76
2022/04/18 12:34:46;;;;;;;3.83;1.80;;;;;26.60;101159.00;;;;10542862;28;20666;-77
2022/04/18 12:40:11;;;;;;;2.13;1.90;;;;;26.60;101159.00;;;;10526287;28;20206;-76
2022/04/18 12:45:13;;;;;;;3.53;2.10;;;;;26.80;101157.00;;;;10525327;28;20203;-76
2022/04/18 12:50:15;;;;;;;3.65;1.73;;;;;26.70;101144.00;;;;10509222;28;20214;-76
2022/04/18 12:55:29;;;;;;;2.00;1.80;;;;;26.90;101144.00;;;;10583230;27;20479;-76
2022/04/18 13:00:36;;;;;;;2.58;1.83;;;;;26.70;101136.00;;;;10564352;27;20629;-76
2022/04/18 13:05:46;;;;;;;1.88;1.55;;;;;26.90;101138.00;;;;10526186;28;20200;-76
2022/04/18 13:10:55;;;;;;;1.60;1.50;;;;;27.40;101128.00;;;;10519262;28;20220;-76
2022/04/18 13:15:58;;;;;;;2.00;1.80;;;;;27.50;101121.00;;;;10469553;28;20197;-77
2022/04/18 13:21:00;;;;;;;2.58;1.40;;;;;26.80;101116.00;;;;10553908;27;20233;-76
2022/04/18 13:26:02;;;;;;;2.30;1.60;;;;;27.00;101109.00;;;;10593462;27;20211;-76
2022/04/18 13:31:03;;;;;;;2.22;1.75;;;;;27.40;101102.00;;;;10610618;27;20207;-76
2022/04/18 13:41:26;;;;;;;1.92;1.73;;;;;30.10;101086.00;;;;10585589;27;20212;-76
2022/04/18 13:46:29;;;;;;;2.80;1.63;;;;;30.10;101083.00;;;;10530327;28;20212;-76
2022/04/18 13:51:31;;;;;;;1.67;1.50;;;;;29.90;101054.00;;;;10515105;27;20916;-76
2022/04/18 13:56:33;;;;;;;1.52;1.42;;;;;31.70;101055.00;;;;10519157;28;20671;-76
2022/04/18 14:01:35;;;;;;;1.88;1.40;;;;;32.10;101055.00;;;;10507359;28;20181;-76
2022/04/18 14:06:38;;;;;;;1.60;1.50;;;;;34.10;101057.00;;;;10561004;28;20202;-76
2022/04/18 14:11:40;;;;;;;2.53;1.60;;;;;34.80;101052.00;;;;10549114;28;20216;-76
2022/04/18 14:22:05;;;;;;;1.75;1.42;;;;;34.00;101048.00;;;;10535839;28;20188;-76
2022/04/18 14:27:07;;;;;;;3.55;1.83;;;;;33.90;101039.00;;;;10521983;28;20189;-76
2022/04/18 14:32:09;;;;;;;4.80;1.50;;;;;33.30;101030.00;;;;10540176;28;20209;-76
2022/04/18 14:37:11;;;;;;;3.42;1.70;;;;;33.00;101027.00;;;;10522424;28;20200;-76
2022/04/18 14:42:13;;;;;;;3.45;1.70;;;;;33.60;101023.00;;;;10538936;27;20235;-76
2022/04/18 14:47:14;;;;;;;3.60;1.52;;;;;32.70;101018.00;;;;10590035;27;20191;-76
2022/04/18 14:52:17;;;;;;;2.05;1.55;;;;;31.80;101013.00;;;;10577639;27;20203;-75
2022/04/18 14:57:19;;;;;;;1.70;1.60;;;;;31.50;101011.00;;;;10531545;27;20329;-75
2022/04/18 15:02:22;;;;;;;2.33;1.90;;;;;29.80;101016.00;;;;10546966;28;20184;-76
2022/04/18 15:07:24;;;;;;;2.88;1.77;;;;;29.50;101017.00;;;;10513389;28;20250;-76
2022/04/18 15:12:27;;;;;;;2.42;1.70;;;;;26.20;101015.00;;;;10529617;28;20212;-75
2022/04/18 15:17:29;;;;;;;2.45;2.00;;;;;25.00;101009.00;;;;10546354;28;20188;-76
2022/04/18 15:22:32;;;;;;;3.38;1.95;;;;;24.20;101008.00;;;;10512496;28;20193;-75
2022/04/18 15:27:34;;;;;;;2.75;1.52;;;;;23.90;101001.00;;;;10520605;28;20192;-75
2022/04/18 15:32:37;;;;;;;4.72;1.50;;;;;23.90;100997.00;;;;10488249;28;20262;-76
2022/04/18 15:37:39;;;;;;;3.60;2.60;;;;;23.60;100997.00;;;;10488413;28;20706;-76
2022/04/18 15:42:41;;;;;;;2.88;1.95;;;;;23.20;101002.00;;;;10538847;28;20247;-76
2022/04/18 15:47:43;;;;;;;3.78;2.22;;;;;23.10;101003.00;;;;10505381;28;20691;-76
2022/04/18 15:52:46;;;;;;;1.65;1.55;;;;;22.80;101000.00;;;;10564650;27;20242;-76
2022/04/18 15:57:48;;;;;;;3.92;2.00;;;;;22.40;100994.00;;;;10587621;27;20320;-76
2022/04/18 16:02:50;;;;;;;7.63;1.92;;;;;22.20;100997.00;;;;10598997;27;20270;-76
2022/04/18 16:07:52;;;;;;;2.63;1.80;;;;;22.20;100989.00;;;;10528705;28;20253;-76
2022/04/18 16:12:54;;;;;;;2.13;1.50;;;;;21.90;100984.00;;;;10528573;28;20235;-76
2022/04/18 16:17:56;;;;;;;2.42;1.65;;;;;21.70;100984.00;;;;10542239;28;20696;-76
2022/04/18 16:22:58;;;;;;;1.55;1.45;;;;;21.50;100988.00;;;;10543942;27;20226;-76
2022/04/18 16:28:01;;;;;;;2.15;1.60;;;;;21.40;100977.00;;;;10569793;27;20224;-76
2022/04/18 16:33:23;;;;;;;4.13;1.52;;;;;21.20;100976.00;;;;10571428;27;20555;-76
2022/04/18 16:38:24;;;;;;;2.95;1.70;;;;;21.20;100970.00;;;;10603455;27;20569;-76
2022/04/18 16:48:47;;;;;;;4.50;1.48;;;;;20.80;100959.00;;;;10542620;28;20196;-76
2022/04/18 16:53:49;;;;;;;2.30;1.20;;;;;20.70;100961.00;;;;10542022;28;20223;-76
2022/04/18 16:58:57;;;;;;;1.90;1.50;;;;;20.50;100968.00;;;;10510723;28;20191;-77
2022/04/18 17:04:01;;;;;;;3.33;1.50;;;;;20.40;100971.00;;;;10526508;28;20227;-76
2022/04/18 17:09:03;;;;;;;3.03;1.30;;;;;20.10;100968.00;;;;10525502;28;20192;-76
2022/04/18 17:14:05;;;;;;;2.28;1.58;;;;;19.90;100966.00;;;;10542797;28;20250;-76
2022/04/18 17:19:07;;;;;;;3.97;1.35;;;;;19.70;100954.00;;;;10542763;28;20246;-76
2022/04/18 17:24:09;;;;;;;1.40;1.30;;;;;19.50;100964.00;;;;10573140;28;20191;-76
2022/04/18 17:29:12;;;;;;;3.33;1.35;;;;;19.30;100958.00;;;;10601646;28;20195;-76
2022/04/18 17:34:15;;;;;;;1.30;1.17;;;;;19.10;100953.00;;;;10601189;28;20219;-76
2022/04/18 17:39:17;;;;;;;3.22;1.33;;;;;18.90;100952.00;;;;10567922;28;20298;-76
2022/04/18 17:44:19;;;;;;;3.13;1.70;;;;;18.60;100950.00;;;;10526667;28;20193;-77
2022/04/18 17:49:21;;;;;;;0.98;0.98;;;;;18.40;100954.00;;;;10508930;28;20200;-76
2022/04/18 17:59:44;;;;;;;2.05;1.30;;;;;17.80;100954.00;;;;10501162;28;20254;-76
2022/04/18 18:04:46;;;;;;;1.80;1.48;;;;;17.50;100965.00;;;;10512022;28;20184;-76
2022/04/18 18:09:49;;;;;;;2.85;1.38;;;;;17.30;100966.00;;;;10566320;28;20203;-76
2022/04/18 18:14:51;;;;;;;3.33;1.55;;;;;17.10;100968.00;;;;10548907;28;20266;-76
2022/04/18 18:19:52;;;;;;;3.05;1.50;;;;;16.80;100971.00;;;;10532978;28;20197;-77
2022/04/18 18:24:54;;;;;;;3.80;1.50;;;;;16.50;100962.00;;;;10602618;27;20211;-77
2022/04/18 18:29:58;;;;;;;4.20;1.30;;;;;16.20;100966.00;;;;10574182;27;20546;-76
2022/04/18 18:35:00;;;;;;;2.17;1.50;;;;;15.90;100958.00;;;;10573600;27;20222;-76
2022/04/18 18:40:05;;;;;;;4.33;1.67;;;;;15.60;100966.00;;;;10584142;27;20239;-76
2022/04/18 18:45:07;;;;;;;4.13;1.70;;;;;15.30;100959.00;;;;10514695;28;20602;-76
2022/04/18 18:55:31;;;;;;;10.53;2.13;;;;;14.80;100962.00;;;;10537271;28;20192;-76
2022/04/18 19:00:33;;;;;;;6.00;1.33;;;;;14.60;100967.00;;;;10553109;28;20697;-76
2022/04/18 19:05:35;;;;;;;5.13;1.60;;;;;14.40;100975.00;;;;10472158;28;20679;-77
2022/04/18 19:10:37;;;;;;;4.70;1.70;;;;;14.20;100971.00;;;;10471773;28;20196;-76
2022/04/18 19:15:40;;;;;;;4.87;1.83;;;;;14.00;100968.00;;;;10487391;28;20192;-76
2022/04/18 19:26:21;;;;;;;7.37;3.57;;;;;13.60;100982.00;;;;10529997;28;20185;-76
2022/04/18 19:31:25;;;;;;;6.83;2.60;;;;;13.40;100981.00;;;;10546387;28;20666;-76
2022/04/18 19:36:27;;;;;;;6.20;2.70;;;;;13.30;100975.00;;;;10546383;28;20275;-76
2022/04/18 19:41:30;;;;;;;9.20;2.50;;;;;13.10;100970.00;;;;10470940;28;20216;-76
2022/04/18 19:46:33;;;;;;;6.33;2.63;;;;;13.00;100966.00;;;;10504626;28;20643;-76
2022/04/18 19:51:35;;;;;;;13.60;5.53;;;;;12.80;100976.00;;;;10521463;28;20208;-76
2022/04/18 19:56:38;;;;;;;9.57;3.67;;;;;12.70;100977.00;;;;10545564;28;20245;-76
2022/04/18 20:01:40;;;;;;;10.57;5.10;;;;;12.70;100973.00;;;;10573310;27;20203;-76
2022/04/18 20:06:42;;;;;;;17.57;5.10;;;;;12.50;100973.00;;;;10521839;28;20589;-76
2022/04/18 20:11:44;;;;;;;9.10;4.40;;;;;12.40;100971.00;;;;10527891;28;20212;-76
2022/04/18 20:16:47;;;;;;;12.40;5.20;;;;;12.20;100973.00;;;;10527442;28;20193;-76
2022/04/18 20:21:49;;;;;;;11.20;5.43;;;;;12.10;100969.00;;;;10543630;28;20192;-76
2022/04/18 20:26:51;;;;;;;11.63;4.47;;;;;11.90;100979.00;;;;10526498;28;20196;-75
2022/04/18 20:31:52;;;;;;;10.33;3.53;;;;;11.80;100979.00;;;;10506097;28;20208;-76
2022/04/18 20:36:54;;;;;;;7.60;3.80;;;;;11.60;100980.00;;;;10560138;28;20253;-76
2022/04/18 20:41:57;;;;;;;8.57;3.20;;;;;11.50;100971.00;;;;10566080;27;20758;-76
2022/04/18 20:46:59;;;;;;;5.90;3.17;;;;;11.40;100980.00;;;;10602657;27;20554;-76
2022/04/18 20:52:00;;;;;;;8.80;3.77;;;;;11.20;100971.00;;;;10563952;28;20559;-76
2022/04/18 21:02:23;;;;;;;8.77;4.10;;;;;11.00;100965.00;;;;10528501;28;20184;-76
2022/04/18 21:07:26;;;;;;;8.83;4.27;;;;;10.90;100964.00;;;;10585216;28;20204;-76
2022/04/18 21:12:27;;;;;;;9.67;4.50;;;;;10.80;100967.00;;;;10584468;28;20208;-76
2022/04/18 21:17:30;;;;;;;12.10;4.57;;;;;10.80;100974.00;;;;10513863;28;20224;-76
2022/04/18 21:22:32;;;;;;;7.47;4.63;;;;;10.60;100981.00;;;;10549872;28;20282;-75
2022/04/18 21:27:33;;;;;;;6.63;4.80;;;;;10.60;100973.00;;;;10534937;28;20252;-76
2022/04/18 21:32:37;;;;;;;8.40;4.87;;;;;10.40;100968.00;;;;10542497;28;20231;-76
2022/04/18 21:37:39;;;;;;;7.23;4.40;;;;;10.40;100968.00;;;;10545214;28;20197;-76
2022/04/18 21:42:42;;;;;;;8.20;4.30;;;;;10.30;100976.00;;;;10495580;28;20213;-76
2022/04/18 21:47:45;;;;;;;8.40;5.20;;;;;10.30;100981.00;;;;10494292;28;20199;-76
2022/04/18 21:52:50;;;;;;;6.77;4.07;;;;;10.30;100984.00;;;;10515110;28;20255;-75
2022/04/18 21:57:52;;;;;;;6.13;4.53;;;;;10.20;100980.00;;;;10508460;28;20193;-76
2022/04/18 22:02:54;;;;;;;6.40;4.27;;;;;10.10;100976.00;;;;10541907;28;20730;-76
2022/04/18 22:07:56;;;;;;;7.33;4.10;;;;;10.00;100982.00;;;;10533838;28;20553;-76
2022/04/18 22:12:58;;;;;;;7.43;4.40;;;;;9.90;100971.00;;;;10508432;28;20263;-76
2022/04/18 22:18:03;;;;;;;7.97;4.40;;;;;9.80;100966.00;;;;10490425;28;20189;-76
2022/04/18 22:28:26;;;;;;;5.97;4.93;;;;;9.60;100975.00;;;;10573864;27;20658;-75
2022/04/18 22:33:29;;;;;;;8.10;5.10;;;;;9.50;100961.00;;;;10538852;27;20242;-76
2022/04/18 22:38:31;;;;;;;7.33;5.17;;;;;9.50;100961.00;;;;10489450;28;20221;-76
2022/04/18 22:43:33;;;;;;;10.13;6.23;;;;;9.50;100959.00;;;;10509586;28;20543;-76
2022/04/18 22:48:35;;;;;;;13.13;6.50;;;;;9.60;100967.00;;;;10547320;28;20204;-76
2022/04/18 22:53:36;;;;;;;11.73;7.10;;;;;9.50;100958.00;;;;10548058;28;20310;-76
2022/04/18 22:58:38;;;;;;;11.97;8.20;;;;;9.50;100953.00;;;;10526862;28;20193;-77
2022/04/18 23:03:42;;;;;;;14.10;8.40;;;;;9.50;100952.00;;;;10492858;28;20779;-76
2022/04/18 23:08:44;;;;;;;15.10;9.80;;;;;9.60;100951.00;;;;10530791;28;20656;-76
2022/04/18 23:13:46;;;;;;;14.27;11.20;;;;;9.70;100951.00;;;;10522478;28;20209;-76
2022/04/18 23:18:48;;;;;;;14.83;11.40;;;;;9.70;100954.00;;;;10529469;28;20605;-76
2022/04/18 23:23:50;;;;;;;20.97;14.40;;;;;9.60;100949.00;;;;10574142;27;20196;-76
2022/04/18 23:28:52;;;;;;;18.77;12.80;;;;;9.60;100951.00;;;;10588202;27;20199;-76
2022/04/18 23:33:54;;;;;;;21.30;14.37;;;;;9.60;100944.00;;;;10528280;28;20213;-75
2022/04/18 23:38:56;;;;;;;20.17;14.20;;;;;9.50;100954.00;;;;10487017;28;20247;-75
2022/04/18 23:44:00;;;;;;;21.83;15.40;;;;;9.40;100945.00;;;;10542456;28;20661;-76
2022/04/18 23:49:03;;;;;;;22.10;16.60;;;;;9.20;100935.00;;;;10528248;28;20706;-76
2022/04/18 23:54:05;;;;;;;21.27;16.30;;;;;9.20;100941.00;;;;10541491;27;20245;-76
2022/04/18 23:59:07;;;;;;;26.80;17.60;;;;;9.10;100928.00;;;;10587177;27;20191;-76
